Time;durP1;ratioP1;P1;durP2;ratioP2;P2;SDS_P1;SDS_P2;PMS_P1;PMS_P2;Temp;Humidity;BMP_temperature;BMP_pressure;BME280_temperature;BME280_humidity;BME280_pressure;Samples;Min_cycle;Max_cycle;Signal;HPM_P1;HPM_P2
2022/06/13 00:00:23;;;;;;;2.00;1.63;;;;;;;17.57;48.67;101637.25;4919477;28;97181;-51
2022/06/13 00:02:49;;;;;;;6.33;1.97;;;;;;;17.56;48.65;101638.53;4939551;28;96935;-50
2022/06/13 00:05:15;;;;;;;4.17;1.90;;;;;;;17.50;48.60;101637.03;4946123;28;97070;-51
2022/06/13 00:07:41;;;;;;;5.93;2.53;;;;;;;17.44;48.93;101639.09;4942313;28;97159;-53
2022/06/13 00:10:08;;;;;;;3.10;1.70;;;;;;;17.41;48.92;101635.31;4941969;28;97202;-50
2022/06/13 00:12:34;;;;;;;3.10;1.90;;;;;;;17.42;48.91;101647.19;4938972;28;97413;-53
2022/06/13 00:14:59;;;;;;;6.43;2.47;;;;;;;17.35;49.12;101653.31;4934727;28;97143;-52
2022/06/13 00:17:25;;;;;;;2.10;1.80;;;;;;;17.34;49.13;101651.81;4937605;28;97248;-50
2022/06/13 00:19:51;;;;;;;6.37;2.10;;;;;;;17.30;49.02;101651.34;4941416;28;97303;-52
2022/06/13 00:22:16;;;;;;;2.57;1.77;;;;;;;17.23;49.07;101653.38;4938832;28;97524;-50
2022/06/13 00:24:41;;;;;;;4.20;1.87;;;;;;;17.18;49.02;101648.63;4930331;28;98245;-50
2022/06/13 00:27:07;;;;;;;3.10;2.07;;;;;;;17.12;49.24;101656.22;4923465;28;96888;-51
2022/06/13 00:29:32;;;;;;;3.63;1.83;;;;;;;17.08;49.20;101652.22;4942347;28;97223;-52
2022/06/13 00:31:57;;;;;;;5.07;1.80;;;;;;;17.02;49.37;101654.25;4943410;28;97290;-50
2022/06/13 00:34:23;;;;;;;2.90;1.80;;;;;;;16.98;49.49;101648.22;4943968;28;97015;-51
2022/06/13 00:36:48;;;;;;;3.23;2.00;;;;;;;16.96;49.60;101656.31;4936851;28;96728;-50
2022/06/13 00:39:14;;;;;;;2.10;1.60;;;;;;;16.96;49.65;101642.41;4937642;28;97084;-50
2022/06/13 00:41:41;;;;;;;4.00;2.00;;;;;;;16.92;49.65;101650.25;4937207;28;100573;-50
2022/06/13 00:44:32;;;;;;;2.57;1.90;;;;;;;16.85;50.86;101645.22;4942197;28;97429;-49
2022/06/13 00:46:58;;;;;;;3.83;1.80;;;;;;;16.81;49.81;101634.41;4943800;28;96806;-52
2022/06/13 00:49:38;;;;;;;3.50;2.17;;;;;;;16.75;50.29;101639.22;4938921;28;97392;-54
2022/06/13 00:52:16;;;;;;;5.47;2.10;;;;;;;16.68;50.51;101631.41;4939920;28;97606;-54
2022/06/13 00:54:43;;;;;;;3.20;1.80;;;;;;;16.61;49.99;101637.50;4930491;28;97382;-51
2022/06/13 00:57:14;;;;;;;6.23;2.20;;;;;;;16.56;50.31;101635.47;4927199;28;97122;-50
2022/06/13 00:59:41;;;;;;;4.37;2.47;;;;;;;16.53;50.09;101638.53;4942206;28;97136;-53
2022/06/13 01:02:07;;;;;;;2.70;2.17;;;;;;;16.49;50.22;101636.72;4942614;28;96828;-54
2022/06/13 01:04:33;;;;;;;4.60;2.50;;;;;;;16.46;50.20;101632.22;4944035;28;97494;-53
2022/06/13 01:07:00;;;;;;;3.73;2.30;;;;;;;16.45;50.26;101629.94;4928690;28;100081;-51
2022/06/13 01:12:14;;;;;;;4.27;1.90;;;;;;;16.32;50.24;101630.47;4925450;28;100765;-54
2022/06/13 01:14:51;;;;;;;3.63;2.10;;;;;;;16.27;50.47;101631.22;4947263;28;103810;-51
2022/06/13 01:17:34;;;;;;;3.53;1.93;;;;;;;16.26;51.06;101637.31;4943156;28;96929;-50
2022/06/13 01:20:08;;;;;;;1.80;1.70;;;;;;;16.21;50.48;101638.06;4955165;28;97141;-51
2022/06/13 01:22:59;;;;;;;2.60;2.10;;;;;;;16.18;50.70;101634.31;4943100;28;96881;-54
2022/06/13 01:25:49;;;;;;;3.40;2.50;;;;;;;16.12;51.69;101622.44;4942735;28;100369;-49
2022/06/13 01:28:17;;;;;;;4.23;2.13;;;;;;;16.10;50.71;101624.97;4944983;28;97332;-50
2022/06/13 01:31:04;;;;;;;4.10;1.83;;;;;;;16.12;51.11;101624.47;4938057;28;102901;-50
2022/06/13 01:33:55;;;;;;;5.17;1.90;;;;;;;16.07;51.78;101619.66;4920017;28;102758;-50
2022/06/13 01:36:48;;;;;;;3.07;2.23;;;;;;;16.03;51.88;101619.19;4937093;28;103150;-53
2022/06/13 01:39:28;;;;;;;3.57;1.80;;;;;;;16.02;50.58;101612.09;4942006;28;97157;-50
2022/06/13 01:41:59;;;;;;;1.97;1.80;;;;;;;15.99;51.38;101616.63;4938471;28;97591;-50
2022/06/13 01:44:53;;;;;;;6.43;2.50;;;;;;;15.93;51.73;101606.81;4939893;28;98964;-53
2022/06/13 01:47:40;;;;;;;3.93;2.57;;;;;;;15.89;51.78;101615.41;4944042;28;101577;-51
2022/06/13 01:50:23;;;;;;;2.10;1.90;;;;;;;15.85;51.84;101617.69;4943466;28;98121;-52
2022/06/13 01:53:17;;;;;;;2.73;1.93;;;;;;;15.80;52.04;101615.66;4942587;28;96697;-51
2022/06/13 01:55:49;;;;;;;7.50;2.30;;;;;;;15.78;51.14;101620.94;4934977;28;101905;-52
2022/06/13 01:58:20;;;;;;;4.30;2.50;;;;;;;15.74;51.13;101612.13;4942145;28;97335;-51
2022/06/13 02:00:57;;;;;;;7.83;2.73;;;;;;;15.71;51.79;101608.34;4930689;28;96947;-53
2022/06/13 02:03:31;;;;;;;4.40;2.40;;;;;;;15.72;51.86;101609.09;4939523;28;97005;-50
2022/06/13 02:06:02;;;;;;;3.93;2.07;;;;;;;15.69;51.69;101610.88;4937352;28;100574;-51
2022/06/13 02:08:58;;;;;;;3.70;2.60;;;;;;;15.70;52.55;101617.19;4942810;28;101715;-51
2022/06/13 02:11:31;;;;;;;3.63;2.37;;;;;;;15.71;51.65;101613.13;4924349;28;97619;-50
2022/06/13 02:14:02;;;;;;;4.73;2.50;;;;;;;15.68;51.42;101617.66;4944798;28;97364;-51
2022/06/13 02:16:45;;;;;;;4.33;2.47;;;;;;;15.64;52.44;101613.63;4939967;28;99196;-51
2022/06/13 02:19:28;;;;;;;3.90;1.77;;;;;;;15.59;52.38;101631.03;4939982;28;102862;-51
2022/06/13 02:21:59;;;;;;;3.80;2.00;;;;;;;15.53;51.99;101624.75;4937027;28;97163;-51
2022/06/13 02:24:33;;;;;;;3.63;2.37;;;;;;;15.53;52.04;101627.50;4936397;28;97055;-51
2022/06/13 02:26:59;;;;;;;4.03;2.10;;;;;;;15.50;51.81;101634.81;4938392;28;98114;-51
2022/06/13 02:29:37;;;;;;;4.80;2.73;;;;;;;15.50;52.14;101632.03;4939336;28;98368;-51
2022/06/13 02:32:14;;;;;;;6.40;2.07;;;;;;;15.49;52.60;101629.75;4940284;28;97244;-53
2022/06/13 02:34:46;;;;;;;3.33;2.13;;;;;;;15.49;51.97;101624.22;4940532;28;97047;-52
2022/06/13 02:37:20;;;;;;;2.20;2.00;;;;;;;15.49;52.29;101622.19;4926358;28;97497;-51
2022/06/13 02:39:51;;;;;;;3.73;1.87;;;;;;;15.47;52.16;101626.72;4929548;28;97055;-51
2022/06/13 02:42:23;;;;;;;2.93;2.10;;;;;;;15.47;52.01;101621.94;4940188;28;97184;-51
2022/06/13 02:45:15;;;;;;;9.40;3.00;;;;;;;15.46;53.10;101617.66;4940471;28;97085;-51
2022/06/13 02:48:18;;;;;;;4.60;2.20;;;;;;;15.43;52.90;101604.00;4938903;28;100698;-51
2022/06/13 02:51:02;;;;;;;4.00;1.87;;;;;;;15.38;53.11;101596.44;4943497;28;101617;-51
2022/06/13 02:53:45;;;;;;;4.80;2.17;;;;;;;15.37;52.97;101595.69;4942544;28;97190;-52
2022/06/13 02:56:37;;;;;;;2.23;2.03;;;;;;;15.33;52.77;101588.88;4935962;28;97400;-51
2022/06/13 02:59:31;;;;;;;4.57;2.30;;;;;;;15.30;53.34;101590.63;4943413;28;102317;-52
2022/06/13 03:02:00;;;;;;;5.10;2.00;;;;;;;15.31;52.54;101572.00;4937049;28;101593;-51
2022/06/13 03:04:37;;;;;;;4.67;2.17;;;;;;;15.32;53.14;101581.81;4939768;28;97439;-51
2022/06/13 03:07:18;;;;;;;4.03;2.10;;;;;;;15.28;53.26;101584.84;4941952;28;99271;-51
2022/06/13 03:09:58;;;;;;;2.90;1.70;;;;;;;15.27;53.21;101588.09;4934083;28;98231;-50
2022/06/13 03:12:34;;;;;;;3.17;2.20;;;;;;;15.26;52.98;101595.69;4930588;28;101088;-50
2022/06/13 03:15:05;;;;;;;4.13;2.20;;;;;;;15.25;52.65;101596.16;4943752;28;97008;-52
2022/06/13 03:17:42;;;;;;;3.47;2.07;;;;;;;15.21;53.05;101603.97;4944753;28;96934;-50
2022/06/13 03:20:16;;;;;;;2.10;1.90;;;;;;;15.17;52.75;101614.56;4940342;28;101613;-51
2022/06/13 03:22:53;;;;;;;2.47;2.20;;;;;;;15.15;53.16;101611.53;4932841;28;97060;-51
2022/06/13 03:25:37;;;;;;;2.43;2.27;;;;;;;15.12;52.40;101609.75;4941979;28;97229;-51
2022/06/13 03:28:09;;;;;;;2.20;2.00;;;;;;;15.07;52.95;101618.81;4937354;28;96928;-51
2022/06/13 03:30:38;;;;;;;2.63;2.00;;;;;;;15.06;52.72;101617.28;4938227;28;97705;-51
2022/06/13 03:35:57;;;;;;;2.37;2.20;;;;;;;15.08;52.85;101617.53;4942634;28;97157;-52
2022/06/13 03:38:27;;;;;;;4.50;2.10;;;;;;;15.12;53.17;101640.22;4942181;28;96996;-57
2022/06/13 03:40:56;;;;;;;4.17;2.27;;;;;;;15.15;52.86;101630.94;4940676;28;96982;-51
2022/06/13 03:43:28;;;;;;;2.83;2.10;;;;;;;15.19;52.95;101636.97;4947429;28;100198;-52
2022/06/13 03:46:01;;;;;;;2.67;1.90;;;;;;;15.20;53.13;101636.47;4931339;28;97092;-53
2022/06/13 03:48:33;;;;;;;4.20;2.87;;;;;;;15.20;53.01;101630.94;4938895;28;98083;-51
2022/06/13 03:51:06;;;;;;;2.47;2.10;;;;;;;15.20;53.17;101635.75;4930242;22;100826;-46
2022/06/13 03:53:40;;;;;;;2.93;2.30;;;;;;;15.24;53.17;101634.25;4950709;28;103527;-46
2022/06/13 03:56:14;;;;;;;2.47;2.13;;;;;;;15.27;53.38;101632.44;4957522;28;97171;-46
2022/06/13 03:58:46;;;;;;;3.70;1.97;;;;;;;15.29;53.21;101661.19;4955977;28;97198;-47
2022/06/13 04:01:17;;;;;;;3.47;2.57;;;;;;;15.34;53.40;101649.38;4959017;28;96969;-47
2022/06/13 04:03:43;;;;;;;6.07;2.47;;;;;;;15.37;53.19;101636.53;4984715;28;97312;-46
2022/06/13 04:06:29;;;;;;;3.70;2.30;;;;;;;15.38;54.46;101607.53;4982701;28;97280;-46
2022/06/13 04:08:55;;;;;;;4.27;2.60;;;;;;;15.40;53.17;101616.09;4982623;28;96988;-46
2022/06/13 04:11:46;;;;;;;2.43;2.07;;;;;;;15.44;53.94;101622.94;4978650;28;97741;-47
2022/06/13 04:14:30;;;;;;;2.50;2.17;;;;;;;15.47;54.65;101626.72;4980315;28;96916;-46
2022/06/13 04:17:03;;;;;;;2.33;1.77;;;;;;;15.48;53.71;101623.47;4971021;28;97119;-48
2022/06/13 04:20:02;;;;;;;3.10;2.33;;;;;;;15.50;54.58;101631.28;4980687;28;97201;-47
2022/06/13 04:22:56;;;;;;;3.13;2.00;;;;;;;15.54;54.06;101638.09;4973735;28;100384;-46
2022/06/13 04:25:25;;;;;;;3.27;2.10;;;;;;;15.59;53.69;101631.81;4982328;28;101610;-46
2022/06/13 04:28:10;;;;;;;3.63;2.10;;;;;;;15.63;54.12;101642.63;4980415;28;96890;-46
2022/06/13 04:30:39;;;;;;;3.43;2.10;;;;;;;15.64;53.59;101647.69;4977662;28;96941;-46
2022/06/13 04:33:14;;;;;;;2.83;2.17;;;;;;;15.68;53.99;101628.03;4979215;28;101965;-46
2022/06/13 04:35:41;;;;;;;8.53;2.50;;;;;;;15.72;53.55;101625.75;4983231;28;101935;-46
2022/06/13 04:38:10;;;;;;;3.37;2.20;;;;;;;15.77;53.63;101627.00;4978603;28;96752;-46
2022/06/13 04:40:40;;;;;;;6.50;2.10;;;;;;;15.81;53.91;101628.28;4982178;28;97489;-47
2022/06/13 04:43:12;;;;;;;3.67;2.83;;;;;;;15.85;53.82;101628.78;4982174;28;97393;-46
2022/06/13 04:45:58;;;;;;;5.60;2.50;;;;;;;15.89;54.20;101626.50;4982908;28;97843;-46
2022/06/13 04:48:24;;;;;;;4.07;2.30;;;;;;;15.91;53.53;101621.19;4987013;28;97048;-47
2022/06/13 04:50:53;;;;;;;5.70;2.37;;;;;;;15.94;53.59;101631.31;4982685;28;96889;-46
2022/06/13 04:53:24;;;;;;;3.30;2.60;;;;;;;15.94;53.62;101631.31;4982374;28;102209;-46
2022/06/13 04:55:52;;;;;;;4.90;2.03;;;;;;;15.95;53.61;101632.78;4981571;28;97161;-46
2022/06/13 04:58:31;;;;;;;5.10;2.40;;;;;;;15.98;54.10;101629.03;4981337;28;97392;-46
2022/06/13 05:01:02;;;;;;;4.03;2.27;;;;;;;15.98;53.71;101620.69;4981333;28;97438;-46
2022/06/13 05:03:31;;;;;;;2.47;2.30;;;;;;;16.00;53.58;101634.81;4981358;28;97466;-46
2022/06/13 05:06:03;;;;;;;3.50;2.43;;;;;;;16.04;53.67;101629.00;4980037;28;98397;-46
2022/06/13 05:08:32;;;;;;;4.17;3.00;;;;;;;16.08;53.63;101635.81;4987786;28;97683;-46
2022/06/13 05:11:10;;;;;;;5.00;2.30;;;;;;;16.13;54.14;101642.63;4986902;28;96916;-47
2022/06/13 05:13:35;;;;;;;4.73;2.10;;;;;;;16.18;53.58;101630.75;4978592;28;97599;-46
2022/06/13 05:16:29;;;;;;;2.90;2.50;;;;;;;16.23;54.44;101629.97;4981498;28;98422;-47
2022/06/13 05:19:26;;;;;;;2.13;2.00;;;;;;;16.29;54.33;101633.53;4981492;28;97667;-46
2022/06/13 05:22:16;;;;;;;3.57;2.27;;;;;;;16.34;54.07;101627.19;4977650;28;97170;-53
2022/06/13 05:25:06;;;;;;;12.17;2.80;;;;;;;16.39;53.99;101629.19;4979951;28;96942;-46
2022/06/13 05:27:31;;;;;;;4.30;2.30;;;;;;;16.45;53.32;101627.91;4979319;28;100755;-47
2022/06/13 05:29:57;;;;;;;2.63;2.33;;;;;;;16.53;53.26;101630.19;4980716;28;97369;-47
2022/06/13 05:32:23;;;;;;;3.80;2.93;;;;;;;16.61;53.38;101631.94;4980920;28;99143;-47
2022/06/13 05:34:49;;;;;;;4.27;2.90;;;;;;;16.70;53.24;101628.13;4982840;28;98272;-46
2022/06/13 05:37:16;;;;;;;5.67;2.90;;;;;;;16.76;53.24;101628.84;4976162;28;97230;-47
2022/06/13 05:39:42;;;;;;;3.50;1.93;;;;;;;16.84;53.17;101638.19;4981560;28;97169;-47
2022/06/13 05:42:11;;;;;;;3.10;1.90;;;;;;;16.89;53.02;101635.34;4980617;28;97416;-47
2022/06/13 05:44:37;;;;;;;4.13;2.40;;;;;;;16.97;53.18;101633.53;4977950;28;101308;-47
2022/06/13 05:47:02;;;;;;;5.47;2.63;;;;;;;17.07;53.30;101636.78;4977945;28;96749;-46
2022/06/13 05:49:28;;;;;;;3.70;2.57;;;;;;;17.17;53.19;101638.00;4974481;28;96709;-47
2022/06/13 05:51:53;;;;;;;3.27;2.40;;;;;;;17.27;53.04;101636.44;4983948;28;97886;-47
2022/06/13 05:54:18;;;;;;;7.23;2.90;;;;;;;17.37;52.94;101634.06;4982518;28;97292;-46
2022/06/13 05:56:44;;;;;;;4.30;2.30;;;;;;;17.42;52.90;101634.06;4980193;28;103148;-47
2022/06/13 05:59:09;;;;;;;3.63;2.10;;;;;;;17.49;52.93;101633.50;4977787;28;97623;-47
2022/06/13 06:01:36;;;;;;;4.33;2.37;;;;;;;17.60;52.74;101641.03;4975814;28;97492;-47
2022/06/13 06:04:05;;;;;;;3.97;2.50;;;;;;;17.71;52.82;101629.81;4974153;28;97379;-47
2022/06/13 06:06:32;;;;;;;5.33;2.57;;;;;;;17.80;52.77;101632.28;4980129;28;97145;-52
2022/06/13 06:08:59;;;;;;;4.33;2.23;;;;;;;17.90;52.64;101641.81;4973400;28;97414;-47
2022/06/13 06:11:26;;;;;;;6.33;2.50;;;;;;;18.05;52.62;101638.63;4978134;28;97369;-47
2022/06/13 06:13:52;;;;;;;8.10;2.40;;;;;;;18.21;52.66;101641.28;4980899;28;96971;-47
2022/06/13 06:16:20;;;;;;;4.23;2.17;;;;;;;18.41;52.36;101631.69;4976816;28;98129;-46
2022/06/13 06:18:47;;;;;;;4.33;1.90;;;;;;;18.57;52.25;101633.56;4982667;28;97162;-47
2022/06/13 06:21:12;;;;;;;4.73;2.23;;;;;;;18.73;52.21;101640.97;4976757;28;97112;-47
2022/06/13 06:23:38;;;;;;;4.47;2.40;;;;;;;18.81;51.81;101636.31;4976615;28;100512;-46
2022/06/13 06:26:06;;;;;;;3.00;2.00;;;;;;;18.86;51.71;101646.66;4976919;28;97330;-47
2022/06/13 06:28:32;;;;;;;7.40;2.20;;;;;;;18.88;51.75;101643.31;4976620;28;97184;-47
2022/06/13 06:30:58;;;;;;;7.73;2.30;;;;;;;18.87;51.52;101644.63;4978339;28;97454;-47
2022/06/13 06:33:24;;;;;;;6.47;2.20;;;;;;;18.92;51.42;101652.13;4980841;28;97251;-48
2022/06/13 06:35:51;;;;;;;6.70;2.07;;;;;;;18.96;51.37;101653.34;4980392;28;97167;-47
2022/06/13 06:38:17;;;;;;;7.33;2.33;;;;;;;19.01;51.63;101649.75;4979255;28;96911;-47
2022/06/13 06:40:43;;;;;;;3.93;1.93;;;;;;;19.10;51.34;101649.38;4982643;28;96990;-46
2022/06/13 06:43:09;;;;;;;3.20;1.57;;;;;;;19.19;51.21;101648.25;4980582;28;98406;-47
2022/06/13 06:45:35;;;;;;;6.63;2.27;;;;;;;19.24;51.25;101645.34;4980833;28;98520;-47
2022/06/13 06:48:01;;;;;;;2.10;1.57;;;;;;;19.28;51.00;101651.41;4975594;28;97770;-47
2022/06/13 06:50:34;;;;;;;3.80;2.30;;;;;;;19.32;50.99;101648.31;4978887;28;96873;-47
2022/06/13 06:52:59;;;;;;;10.10;2.40;;;;;;;19.33;50.99;101653.34;4977379;28;97459;-47
2022/06/13 07:01:03;;;;;;;5.83;2.17;;;;;;;19.46;50.82;101649.91;4981368;28;97236;-46
2022/06/13 07:03:28;;;;;;;3.67;1.90;;;;;;;19.53;50.58;101648.56;4982794;28;97517;-47
2022/06/13 07:05:53;;;;;;;2.83;1.80;;;;;;;19.62;50.65;101648.88;4981355;28;97004;-46
2022/06/13 07:08:19;;;;;;;5.73;2.00;;;;;;;19.68;50.36;101651.59;4980282;28;96898;-47
2022/06/13 07:10:48;;;;;;;6.60;2.43;;;;;;;19.72;50.20;101649.25;4979552;28;97008;-47
2022/06/13 07:13:14;;;;;;;3.50;2.10;;;;;;;19.77;50.19;101649.16;4980404;28;97308;-48
2022/06/13 07:15:40;;;;;;;7.53;1.90;;;;;;;19.87;50.10;101639.09;4981642;28;97279;-47
2022/06/13 07:18:06;;;;;;;3.30;1.80;;;;;;;19.95;49.69;101636.41;4977736;28;97478;-47
2022/06/13 07:20:31;;;;;;;8.27;2.30;;;;;;;20.02;49.64;101642.13;4976592;28;97008;-47
2022/06/13 07:22:57;;;;;;;5.50;2.00;;;;;;;20.12;49.68;101646.00;4981020;28;97500;-47
2022/06/13 07:25:26;;;;;;;6.90;2.10;;;;;;;20.26;49.30;101630.06;4983900;28;97369;-47
2022/06/13 07:27:52;;;;;;;4.73;2.33;;;;;;;20.40;49.00;101636.41;4980773;28;96895;-47
2022/06/13 07:30:19;;;;;;;3.43;2.00;;;;;;;20.54;48.99;101629.50;4977682;28;97253;-47
2022/06/13 07:32:45;;;;;;;2.97;1.67;;;;;;;20.66;48.63;101634.34;4981039;28;97557;-47
2022/06/13 07:35:14;;;;;;;3.17;1.57;;;;;;;20.71;48.17;101627.88;4979890;28;101356;-47
2022/06/13 07:40:25;;;;;;;2.60;1.70;;;;;;;20.76;47.98;101626.25;4978476;28;96963;-47
2022/06/13 07:42:54;;;;;;;3.27;1.67;;;;;;;20.89;47.97;101626.25;4984692;28;97273;-47
2022/06/13 07:45:24;;;;;;;2.13;1.87;;;;;;;21.04;47.53;101629.25;4977320;28;96871;-47
2022/06/13 07:47:50;;;;;;;6.70;2.00;;;;;;;21.14;47.14;101643.53;4979181;28;97501;-47
2022/06/13 07:50:20;;;;;;;2.37;1.23;;;;;;;21.20;46.89;101630.94;4978580;28;96921;-47
2022/06/13 07:52:46;;;;;;;3.73;1.77;;;;;;;21.21;46.72;101634.50;4971161;28;98986;-47
2022/06/13 07:55:12;;;;;;;4.37;1.60;;;;;;;21.24;46.65;101636.19;4976461;28;97543;-48
2022/06/13 07:57:37;;;;;;;3.47;1.17;;;;;;;21.33;46.41;101635.72;4979811;28;96865;-47
2022/06/13 08:00:05;;;;;;;2.77;1.50;;;;;;;21.46;45.99;101639.22;4979142;28;96930;-47
2022/06/13 08:02:33;;;;;;;2.77;1.77;;;;;;;21.53;46.15;101632.19;4981301;28;97524;-48
2022/06/13 08:04:58;;;;;;;3.50;1.27;;;;;;;21.53;45.84;101637.81;4982078;28;97478;-47
2022/06/13 08:07:24;;;;;;;4.90;1.50;;;;;;;21.50;45.64;101633.28;4977899;28;97166;-48
2022/06/13 08:09:49;;;;;;;3.10;1.70;;;;;;;21.48;45.59;101630.28;4981432;28;97599;-48
2022/06/13 08:12:17;;;;;;;4.03;1.57;;;;;;;21.57;45.47;101635.41;4975560;28;97303;-47
2022/06/13 08:14:47;;;;;;;2.63;1.33;;;;;;;21.67;45.20;101646.91;4971777;28;97376;-47
2022/06/13 08:17:14;;;;;;;3.13;1.30;;;;;;;21.66;45.14;101632.13;4971483;28;97667;-47
2022/06/13 08:19:39;;;;;;;3.40;1.53;;;;;;;21.74;45.29;101643.41;4978745;28;97090;-47
2022/06/13 08:22:04;;;;;;;2.77;1.60;;;;;;;21.79;44.93;101639.72;4976454;28;97592;-47
2022/06/13 08:24:30;;;;;;;3.90;1.43;;;;;;;21.78;44.94;101643.81;4975810;28;97549;-47
2022/06/13 08:26:55;;;;;;;3.73;1.50;;;;;;;21.69;44.41;101639.44;4981327;28;97234;-47
2022/06/13 08:29:21;;;;;;;3.23;1.43;;;;;;;21.57;44.65;101647.38;4964568;28;97821;-48
2022/06/13 08:31:46;;;;;;;4.37;1.60;;;;;;;21.42;44.79;101652.81;4977837;28;98504;-47
2022/06/13 08:34:11;;;;;;;2.47;1.60;;;;;;;21.25;45.00;101651.69;4972272;28;97395;-47
2022/06/13 08:36:37;;;;;;;2.70;1.27;;;;;;;21.09;45.00;101652.81;4975501;28;97050;-47
2022/06/13 08:39:02;;;;;;;2.00;1.43;;;;;;;21.05;45.28;101652.41;4974602;28;97444;-47
2022/06/13 08:41:40;;;;;;;3.27;2.13;;;;;;;21.16;45.24;101646.56;4974151;28;96975;-47
2022/06/13 08:44:08;;;;;;;3.90;1.50;;;;;;;21.37;44.61;101636.13;4979096;28;97255;-47
2022/06/13 08:47:02;;;;;;;6.40;1.53;;;;;;;21.51;43.11;101640.41;4977547;28;97549;-47
2022/06/13 08:49:33;;;;;;;4.90;1.20;;;;;;;21.54;44.08;101644.91;4975683;28;97243;-47
2022/06/13 08:52:06;;;;;;;3.27;1.20;;;;;;;21.60;43.27;101648.34;4978060;28;96910;-48
2022/06/13 08:54:34;;;;;;;1.90;1.20;;;;;;;21.64;43.75;101657.16;4977715;28;97028;-47
2022/06/13 08:57:06;;;;;;;3.07;1.43;;;;;;;21.64;43.09;101645.94;4975423;28;97234;-48
2022/06/13 08:59:40;;;;;;;3.63;1.30;;;;;;;21.73;43.04;101644.72;4979799;28;96932;-47
2022/06/13 09:02:22;;;;;;;1.60;1.00;;;;;;;21.73;42.54;101651.06;4975987;28;97083;-47
2022/06/13 09:04:59;;;;;;;3.20;1.00;;;;;;;21.77;42.26;101647.91;4970523;28;97318;-47
2022/06/13 09:07:31;;;;;;;1.23;1.10;;;;;;;21.76;42.64;101652.00;4973433;28;96992;-47
2022/06/13 09:10:07;;;;;;;2.10;0.97;;;;;;;21.73;41.19;101644.72;4979235;28;97109;-47
2022/06/13 09:12:56;;;;;;;1.80;0.80;;;;;;;21.79;41.93;101640.47;4975447;28;98572;-47
2022/06/13 09:15:27;;;;;;;1.37;0.80;;;;;;;21.98;42.27;101652.25;4975660;28;101589;-47
2022/06/13 09:18:19;;;;;;;2.57;1.07;;;;;;;22.28;41.81;101652.47;4977027;28;97442;-47
2022/06/13 09:20:49;;;;;;;1.83;1.13;;;;;;;22.25;41.21;101666.84;4971515;28;98408;-47
2022/06/13 09:23:31;;;;;;;2.70;1.07;;;;;;;21.77;41.79;101664.72;4982517;28;101503;-47
2022/06/13 09:26:09;;;;;;;1.10;0.80;;;;;;;21.49;42.51;101671.00;4976030;28;103178;-47
2022/06/13 09:28:34;;;;;;;2.50;1.00;;;;;;;21.25;42.91;101686.03;4979322;28;96877;-47
2022/06/13 09:31:13;;;;;;;1.20;0.90;;;;;;;21.11;42.42;101678.22;4978611;28;97119;-47
2022/06/13 09:34:10;;;;;;;2.27;0.80;;;;;;;20.85;42.64;101685.31;4981519;28;98133;-47
2022/06/13 09:36:43;;;;;;;2.13;0.87;;;;;;;20.82;43.40;101678.00;4973839;28;101689;-48
2022/06/13 09:39:12;;;;;;;1.20;1.10;;;;;;;20.84;43.49;101680.25;4969480;28;97724;-47
2022/06/13 09:41:55;;;;;;;3.70;1.17;;;;;;;20.78;43.25;101685.97;4981414;28;97348;-47
2022/06/13 09:44:27;;;;;;;1.20;0.77;;;;;;;20.78;43.10;101688.78;4975993;28;101779;-47
2022/06/13 09:47:10;;;;;;;0.87;0.73;;;;;;;20.84;43.55;101688.66;4984678;28;96947;-47
2022/06/13 09:49:40;;;;;;;1.40;0.80;;;;;;;21.13;43.55;101703.59;4981113;28;98134;-48
2022/06/13 09:52:18;;;;;;;1.87;1.10;;;;;;;21.32;43.00;101721.00;4984181;28;98260;-47
2022/06/13 09:55:25;;;;;;;2.50;1.00;;;;;;;21.19;43.03;101718.97;4982586;28;102902;-47
2022/06/13 09:58:13;;;;;;;1.03;0.93;;;;;;;21.10;43.10;101735.50;4967153;28;100057;-47
2022/06/13 10:00:38;;;;;;;2.13;1.10;;;;;;;20.95;43.79;101752.78;4974055;28;97399;-47
2022/06/13 10:03:22;;;;;;;1.40;0.70;;;;;;;20.79;43.89;101753.88;4976514;28;96998;-47
2022/06/13 10:06:25;;;;;;;7.47;0.83;;;;;;;20.43;45.73;101773.06;4980924;28;97410;-48
2022/06/13 10:09:14;;;;;;;0.87;0.60;;;;;;;19.99;46.44;101765.34;4978960;28;101532;-48
2022/06/13 10:12:13;;;;;;;1.53;0.70;;;;;;;19.42;47.02;101755.50;4977555;28;97606;-47
2022/06/13 10:14:56;;;;;;;2.87;0.50;;;;;;;19.01;47.56;101727.84;4976807;28;97136;-47
2022/06/13 10:17:34;;;;;;;0.60;0.40;;;;;;;18.82;48.19;101724.28;4978788;28;98598;-46
2022/06/13 10:20:26;;;;;;;0.60;0.53;;;;;;;18.80;48.66;101728.84;4977134;28;97491;-46
2022/06/13 10:23:07;;;;;;;0.60;0.50;;;;;;;18.85;48.27;101723.19;4979017;28;97188;-47
2022/06/13 10:26:17;;;;;;;0.60;0.40;;;;;;;18.92;49.67;101724.66;4982344;28;97208;-46
2022/06/13 10:28:43;;;;;;;0.53;0.40;;;;;;;19.02;48.69;101723.03;4955667;28;100463;-46
2022/06/13 10:31:17;;;;;;;1.27;0.40;;;;;;;19.24;49.96;101720.69;4981352;28;97383;-46
2022/06/13 10:34:15;;;;;;;4.97;0.70;;;;;;;19.50;49.96;101720.16;4979159;28;97041;-46
2022/06/13 10:36:49;;;;;;;0.70;0.40;;;;;;;19.74;49.30;101717.25;4969429;28;99089;-46
2022/06/13 10:39:19;;;;;;;0.70;0.40;;;;;;;19.91;48.98;101717.00;4986685;28;97085;-47
2022/06/13 10:41:48;;;;;;;0.73;0.47;;;;;;;20.11;48.65;101705.22;4982415;28;96789;-47
2022/06/13 10:44:18;;;;;;;1.00;0.60;;;;;;;20.13;48.01;101705.44;4983911;28;97257;-47
2022/06/13 10:46:49;;;;;;;0.83;0.40;;;;;;;20.30;48.19;101714.34;4981203;28;97383;-46
2022/06/13 10:50:06;;;;;;;0.90;0.80;;;;;;;20.35;48.63;101705.09;4981547;28;97579;-47
2022/06/13 10:52:37;;;;;;;0.67;0.50;;;;;;;20.48;47.71;101702.31;4962084;28;101614;-47
2022/06/13 10:55:08;;;;;;;1.63;1.00;;;;;;;20.56;48.49;101702.41;4977569;28;96952;-46
2022/06/13 10:57:43;;;;;;;0.90;0.70;;;;;;;20.71;49.40;101706.19;4981296;28;96999;-47
2022/06/13 11:00:19;;;;;;;1.17;0.60;;;;;;;20.88;49.19;101700.28;4985783;28;97750;-47
2022/06/13 11:02:45;;;;;;;1.03;0.70;;;;;;;21.00;47.70;101709.94;4982875;28;102886;-47
2022/06/13 11:05:17;;;;;;;0.70;0.70;;;;;;;21.11;48.14;101701.34;4984961;28;97822;-47
2022/06/13 11:07:53;;;;;;;0.97;0.57;;;;;;;21.21;48.73;101704.47;4968499;28;97422;-47
2022/06/13 11:10:39;;;;;;;2.40;0.87;;;;;;;21.25;48.00;101707.69;4978918;28;102854;-47
2022/06/13 11:13:13;;;;;;;1.43;0.80;;;;;;;21.14;47.88;101714.28;4977223;28;100417;-47
2022/06/13 11:24:31;;;;;;;1.10;0.60;;;;;;;19.86;50.37;101754.88;4981291;28;96941;-46
2022/06/13 11:29:41;;;;;;;0.53;0.40;;;;;;;19.79;50.13;101744.31;4975803;28;97408;-48
2022/06/13 11:32:20;;;;;;;0.77;0.40;;;;;;;19.96;51.30;101756.00;4979087;28;98665;-47
2022/06/13 11:34:45;;;;;;;0.60;0.50;;;;;;;20.24;50.05;101752.81;4981850;28;101467;-46
2022/06/13 11:37:18;;;;;;;0.60;0.40;;;;;;;20.32;50.42;101745.28;4974515;28;96920;-46
2022/06/13 11:39:46;;;;;;;0.53;0.40;;;;;;;20.51;50.09;101748.75;4981904;28;97034;-46
2022/06/13 11:42:33;;;;;;;0.50;0.50;;;;;;;20.80;50.91;101739.34;4984636;28;97394;-47
2022/06/13 11:45:05;;;;;;;0.60;0.50;;;;;;;21.05;49.89;101744.75;4976040;28;102750;-47
2022/06/13 11:47:49;;;;;;;0.90;0.60;;;;;;;21.24;48.97;101745.34;4975729;28;97343;-47
2022/06/13 11:50:25;;;;;;;0.60;0.43;;;;;;;21.38;49.50;101744.06;4977599;28;97067;-47
2022/06/13 11:55:53;;;;;;;0.60;0.50;;;;;;;21.49;48.85;101741.00;4972457;28;101193;-47
2022/06/13 11:58:25;;;;;;;1.27;0.40;;;;;;;21.57;48.52;101741.84;4980438;28;96800;-47
2022/06/13 12:00:54;;;;;;;0.83;0.50;;;;;;;21.72;48.19;101732.84;4975090;28;97338;-47
2022/06/13 12:03:23;;;;;;;0.50;0.40;;;;;;;21.85;48.00;101736.38;4977941;28;96996;-47
2022/06/13 12:05:55;;;;;;;2.20;0.60;;;;;;;21.91;47.89;101745.41;4974278;28;96889;-47
2022/06/13 12:08:25;;;;;;;0.70;0.40;;;;;;;22.04;48.08;101741.81;4977219;28;97368;-47
2022/06/13 12:11:20;;;;;;;0.57;0.40;;;;;;;22.07;46.57;101729.47;4974566;28;97172;-47
2022/06/13 12:13:48;;;;;;;0.67;0.47;;;;;;;22.00;47.52;101725.31;4975061;28;100725;-47
2022/06/13 12:16:37;;;;;;;0.70;0.60;;;;;;;21.81;47.80;101718.38;4972105;28;97408;-47
2022/06/13 12:19:02;;;;;;;0.70;0.40;;;;;;;21.58;47.59;101727.28;4974123;28;99481;-46
2022/06/13 12:21:37;;;;;;;1.47;0.50;;;;;;;21.42;48.04;101722.81;4976635;28;97359;-47